Time;durP1;ratioP1;P1;durP2;ratioP2;P2;SDS_P1;SDS_P2;PMS_P1;PMS_P2;Temp;Humidity;BMP_temperature;BMP_pressure;BME280_temperature;BME280_humidity;BME280_pressure;Samples;Min_cycle;Max_cycle;Signal;HPM_P1;HPM_P2
2022/03/02 00:01:41;;;;;;;34.25;22.23;;;6.30;99.90;;;;;;5130092;27;20046;-69
2022/03/02 00:04:06;;;;;;;33.35;21.60;;;6.30;99.90;;;;;;5147327;27;20091;-69
2022/03/02 00:06:32;;;;;;;32.63;22.40;;;6.20;99.90;;;;;;5148079;27;20039;-69
2022/03/02 00:08:58;;;;;;;36.03;24.05;;;6.20;99.90;;;;;;5144742;27;20502;-69
2022/03/02 00:11:27;;;;;;;35.70;22.20;;;6.20;99.90;;;;;;5144905;27;20059;-69
2022/03/02 00:13:54;;;;;;;33.30;22.15;;;6.20;99.90;;;;;;5130598;27;20035;-70
2022/03/02 00:16:19;;;;;;;34.97;22.40;;;6.20;99.90;;;;;;5147028;27;20515;-69
2022/03/02 00:18:46;;;;;;;32.05;22.17;;;6.40;99.90;;;;;;5145339;27;20050;-69
2022/03/02 00:21:11;;;;;;;34.92;23.88;;;6.20;99.90;;;;;;5148978;27;20030;-69
2022/03/02 00:23:37;;;;;;;34.65;21.70;;;6.20;99.90;;;;;;5149405;27;20111;-69
2022/03/02 00:26:03;;;;;;;36.85;23.92;;;6.30;99.90;;;;;;5148885;27;20042;-69
2022/03/02 00:28:29;;;;;;;33.25;21.95;;;6.20;99.90;;;;;;5145937;27;20121;-69
2022/03/02 00:30:55;;;;;;;32.63;22.67;;;6.20;99.90;;;;;;5145480;27;20054;-69
2022/03/02 00:33:21;;;;;;;35.88;23.13;;;6.10;99.90;;;;;;5148588;27;20035;-69
2022/03/02 00:35:47;;;;;;;33.90;22.00;;;6.20;99.90;;;;;;5147844;27;20038;-69
2022/03/02 00:38:14;;;;;;;32.78;21.95;;;6.10;99.90;;;;;;5146147;27;20076;-69
2022/03/02 00:40:40;;;;;;;37.08;24.15;;;6.20;99.90;;;;;;5148194;27;20126;-69
2022/03/02 00:43:09;;;;;;;32.70;22.65;;;6.20;99.90;;;;;;5147370;27;20543;-69
2022/03/02 00:45:35;;;;;;;32.78;22.70;;;6.20;99.90;;;;;;5147504;27;20077;-69
2022/03/02 00:48:03;;;;;;;33.10;21.88;;;6.20;99.90;;;;;;5144356;27;20082;-69
2022/03/02 00:50:29;;;;;;;33.15;21.55;;;6.20;99.90;;;;;;5146562;27;20039;-69
2022/03/02 00:52:55;;;;;;;33.85;22.42;;;6.20;99.90;;;;;;5149643;27;20102;-69
2022/03/02 00:55:22;;;;;;;35.10;22.25;;;6.20;99.90;;;;;;5152366;27;20047;-69
2022/03/02 00:57:48;;;;;;;33.17;22.38;;;6.20;99.90;;;;;;5149274;27;20174;-69
2022/03/02 01:00:14;;;;;;;35.58;22.65;;;6.20;99.90;;;;;;5150356;27;20457;-69
2022/03/02 01:02:40;;;;;;;37.05;22.92;;;6.20;99.90;;;;;;5151306;27;20121;-69
2022/03/02 01:05:07;;;;;;;33.42;22.38;;;6.20;99.90;;;;;;5151703;27;20155;-69
2022/03/02 01:07:34;;;;;;;36.65;23.35;;;6.20;99.90;;;;;;5147876;27;20043;-69
2022/03/02 01:10:00;;;;;;;34.58;22.42;;;6.10;99.90;;;;;;5148745;27;20042;-69
2022/03/02 01:12:27;;;;;;;34.83;22.83;;;6.20;99.90;;;;;;5149251;27;20522;-69
2022/03/02 01:14:53;;;;;;;34.80;22.77;;;6.10;99.90;;;;;;5150362;27;20054;-69
2022/03/02 01:17:20;;;;;;;34.42;23.50;;;6.10;99.90;;;;;;5149275;27;20035;-69
2022/03/02 01:19:47;;;;;;;34.90;22.35;;;6.20;99.90;;;;;;5149125;27;20046;-70
2022/03/02 01:22:13;;;;;;;30.88;21.17;;;6.00;99.90;;;;;;5150665;27;20051;-69
2022/03/02 01:24:39;;;;;;;31.67;21.88;;;6.20;99.90;;;;;;5152011;27;20110;-69
2022/03/02 01:27:05;;;;;;;32.25;22.10;;;6.10;99.90;;;;;;5150986;27;20391;-69
2022/03/02 01:29:33;;;;;;;35.05;22.05;;;6.00;99.90;;;;;;5151940;27;20121;-69
2022/03/02 01:32:00;;;;;;;33.85;21.95;;;6.10;99.90;;;;;;5151477;27;20053;-69
2022/03/02 01:34:26;;;;;;;36.67;23.13;;;6.00;99.90;;;;;;5148744;27;20058;-69
2022/03/02 01:36:52;;;;;;;32.53;21.83;;;7.10;99.90;;;;;;5150063;27;20468;-69
2022/03/02 01:39:18;;;;;;;35.55;23.20;;;6.00;99.90;;;;;;5148508;27;21470;-69
2022/03/02 01:41:43;;;;;;;33.80;22.85;;;5.90;99.90;;;;;;5148836;27;20131;-69
2022/03/02 01:44:09;;;;;;;34.47;23.15;;;5.90;99.90;;;;;;5148802;27;20042;-69
2022/03/02 01:46:35;;;;;;;35.03;24.17;;;5.90;99.90;;;;;;5150750;27;20039;-69
2022/03/02 01:49:01;;;;;;;35.60;23.52;;;5.90;99.90;;;;;;5149964;27;20050;-69
2022/03/02 01:51:27;;;;;;;34.75;22.88;;;5.90;99.90;;;;;;5151085;27;20493;-69
2022/03/02 01:53:53;;;;;;;37.65;24.95;;;6.00;99.90;;;;;;5149724;27;20034;-69
2022/03/02 01:56:19;;;;;;;37.70;24.88;;;5.90;99.90;;;;;;5149011;27;21524;-69
2022/03/02 01:58:46;;;;;;;36.80;23.25;;;5.90;99.90;;;;;;5149150;27;20038;-69
2022/03/02 02:01:12;;;;;;;36.92;24.13;;;5.90;99.90;;;;;;5149006;27;20039;-69
2022/03/02 02:03:38;;;;;;;37.17;23.92;;;5.90;99.90;;;;;;5146568;27;20066;-69
2022/03/02 02:06:04;;;;;;;35.33;22.63;;;5.90;99.90;;;;;;5149225;27;20043;-69
2022/03/02 02:08:30;;;;;;;39.90;25.02;;;6.00;99.90;;;;;;5151033;27;20039;-69
2022/03/02 02:10:58;;;;;;;39.58;24.08;;;5.90;99.90;;;;;;5150001;27;20046;-69
2022/03/02 02:13:25;;;;;;;36.25;23.30;;;5.90;99.90;;;;;;5150234;27;20610;-69
2022/03/02 02:15:54;;;;;;;38.22;24.15;;;5.90;99.90;;;;;;5149154;27;20537;-69
2022/03/02 02:18:20;;;;;;;36.53;22.60;;;5.80;99.90;;;;;;5148232;27;20041;-69
2022/03/02 02:20:46;;;;;;;35.38;23.60;;;5.80;99.90;;;;;;5148362;27;20038;-69
2022/03/02 02:23:13;;;;;;;40.25;23.60;;;5.80;99.90;;;;;;5148703;27;20034;-69
2022/03/02 02:25:38;;;;;;;36.35;23.58;;;5.80;99.90;;;;;;5148117;27;20038;-69
2022/03/02 02:28:06;;;;;;;37.30;23.70;;;5.80;99.90;;;;;;5148329;27;20035;-69
2022/03/02 02:30:32;;;;;;;38.40;24.88;;;5.90;99.90;;;;;;5150627;27;20390;-69
2022/03/02 02:32:57;;;;;;;36.38;24.73;;;5.90;99.90;;;;;;5148042;27;20114;-69
2022/03/02 02:35:25;;;;;;;38.58;23.40;;;5.90;99.90;;;;;;5147462;27;20502;-69
2022/03/02 02:37:50;;;;;;;38.78;24.40;;;5.80;99.90;;;;;;5148766;27;20046;-69
2022/03/02 02:40:20;;;;;;;38.15;23.88;;;5.90;99.90;;;;;;5148177;27;20051;-69
2022/03/02 02:42:47;;;;;;;38.58;24.75;;;5.90;99.90;;;;;;5148356;27;20050;-69
2022/03/02 02:45:17;;;;;;;37.25;23.80;;;5.90;99.90;;;;;;5145215;27;20054;-69
2022/03/02 02:47:44;;;;;;;42.10;24.73;;;5.90;99.90;;;;;;5148416;27;20047;-69
2022/03/02 02:50:22;;;;;;;36.72;23.80;;;5.80;99.90;;;;;;5148959;27;20499;-69
2022/03/02 02:52:50;;;;;;;35.83;24.30;;;5.90;99.90;;;;;;5147074;27;20043;-69
2022/03/02 02:55:16;;;;;;;36.80;24.25;;;5.90;99.90;;;;;;5148694;27;20042;-69
2022/03/02 02:57:43;;;;;;;40.90;25.63;;;5.80;99.90;;;;;;5150370;27;20039;-69
2022/03/02 03:00:12;;;;;;;39.92;24.38;;;5.90;99.90;;;;;;5149807;27;20023;-69
2022/03/02 03:02:38;;;;;;;34.70;23.45;;;5.80;99.90;;;;;;5148952;27;20034;-69
2022/03/02 03:05:08;;;;;;;35.83;22.92;;;5.80;99.90;;;;;;5149082;27;20035;-69
2022/03/02 03:07:34;;;;;;;35.92;23.60;;;5.90;99.90;;;;;;5148450;27;20038;-69
2022/03/02 03:09:59;;;;;;;35.15;23.60;;;5.90;99.90;;;;;;5146292;27;20042;-69
2022/03/02 03:12:25;;;;;;;39.25;24.92;;;5.80;99.90;;;;;;5148011;27;20074;-69
2022/03/02 03:14:51;;;;;;;37.75;23.17;;;5.90;99.90;;;;;;5147358;27;20035;-69
2022/03/02 03:17:17;;;;;;;40.83;25.15;;;5.80;99.90;;;;;;5146603;27;20090;-69
2022/03/02 03:19:43;;;;;;;37.92;23.85;;;5.80;99.90;;;;;;5150356;27;20081;-69
2022/03/02 03:22:08;;;;;;;36.28;23.73;;;5.80;99.90;;;;;;5146450;27;20042;-69
2022/03/02 03:24:34;;;;;;;37.22;23.98;;;5.80;99.90;;;;;;5149993;27;20053;-69
2022/03/02 03:27:01;;;;;;;37.45;24.23;;;5.90;99.90;;;;;;5148029;27;20030;-69
2022/03/02 03:29:27;;;;;;;40.38;25.23;;;5.70;99.90;;;;;;5147407;27;20050;-69
2022/03/02 03:31:52;;;;;;;38.30;24.58;;;5.70;99.90;;;;;;5149024;27;20047;-69
2022/03/02 03:34:18;;;;;;;40.80;24.92;;;5.60;99.90;;;;;;5147568;27;20049;-69
2022/03/02 03:36:44;;;;;;;37.80;25.33;;;5.60;99.90;;;;;;5149711;27;20031;-69
2022/03/02 03:39:09;;;;;;;39.45;25.17;;;5.60;99.90;;;;;;5147796;27;20502;-69
2022/03/02 03:41:35;;;;;;;39.97;24.48;;;5.50;99.90;;;;;;5144466;27;20494;-69
2022/03/02 03:44:01;;;;;;;37.65;24.52;;;5.50;99.90;;;;;;5147427;27;20137;-69
2022/03/02 03:46:27;;;;;;;34.50;24.08;;;5.50;99.90;;;;;;5146052;27;20038;-69
2022/03/02 03:48:53;;;;;;;40.60;26.17;;;5.50;99.90;;;;;;5145185;27;20486;-69
2022/03/02 03:51:19;;;;;;;41.72;27.13;;;5.50;99.90;;;;;;5145989;27;20030;-69
2022/03/02 03:53:45;;;;;;;35.63;23.58;;;5.50;99.90;;;;;;5147658;27;20117;-69
2022/03/02 03:56:10;;;;;;;41.17;26.02;;;5.50;99.90;;;;;;5146722;27;20060;-69
2022/03/02 03:58:37;;;;;;;39.70;24.67;;;5.50;99.90;;;;;;5149467;27;20390;-69
2022/03/02 04:01:03;;;;;;;38.72;24.48;;;5.50;99.90;;;;;;5146526;27;20047;-69
2022/03/02 04:03:29;;;;;;;36.28;23.35;;;5.60;99.90;;;;;;5147910;27;20490;-69
2022/03/02 04:05:55;;;;;;;39.10;24.58;;;5.50;99.90;;;;;;5148509;27;20082;-69
2022/03/02 04:08:22;;;;;;;39.58;25.40;;;5.50;99.90;;;;;;5145220;27;20478;-69
2022/03/02 04:10:51;;;;;;;42.35;25.55;;;5.50;99.90;;;;;;5146864;27;20109;-69
2022/03/02 04:13:17;;;;;;;44.08;26.02;;;5.50;99.90;;;;;;5146487;27;20124;-69
2022/03/02 04:15:43;;;;;;;38.00;24.38;;;5.40;99.90;;;;;;5146215;27;20522;-69
2022/03/02 04:18:08;;;;;;;40.90;25.90;;;5.40;99.90;;;;;;5147914;27;20494;-69
2022/03/02 04:20:35;;;;;;;42.15;27.33;;;5.40;99.90;;;;;;5148443;27;20047;-69
2022/03/02 04:23:02;;;;;;;39.35;24.58;;;5.40;99.90;;;;;;5126440;27;20474;-69
2022/03/02 04:25:28;;;;;;;38.20;25.25;;;5.40;99.90;;;;;;5147496;27;20168;-69
2022/03/02 04:27:54;;;;;;;39.08;24.55;;;5.40;99.90;;;;;;5149375;27;20129;-69
2022/03/02 04:30:20;;;;;;;36.90;24.00;;;5.40;99.90;;;;;;5151644;27;20038;-69
2022/03/02 04:32:45;;;;;;;42.65;25.63;;;5.40;99.90;;;;;;5147388;27;20051;-69
2022/03/02 04:35:12;;;;;;;38.53;24.35;;;5.30;99.90;;;;;;5150003;27;20030;-69
2022/03/02 04:37:39;;;;;;;41.03;26.38;;;5.30;99.90;;;;;;5149718;27;20391;-69
2022/03/02 04:40:11;;;;;;;38.63;25.40;;;5.30;99.90;;;;;;5150775;27;20038;-69
2022/03/02 04:42:37;;;;;;;41.25;25.92;;;5.30;99.90;;;;;;5152581;27;20118;-69
2022/03/02 04:45:04;;;;;;;40.65;25.85;;;5.30;99.90;;;;;;5153951;27;20031;-69
2022/03/02 04:47:30;;;;;;;42.97;25.80;;;5.30;99.90;;;;;;5151080;27;20034;-69
2022/03/02 04:49:57;;;;;;;44.38;25.55;;;5.20;99.90;;;;;;5153378;27;20072;-69
2022/03/02 04:52:23;;;;;;;38.88;25.13;;;5.30;99.90;;;;;;5150093;27;20042;-69
2022/03/02 04:55:07;;;;;;;40.70;25.80;;;5.40;99.90;;;;;;5150563;27;20035;-69
2022/03/02 04:57:45;;;;;;;40.50;26.00;;;5.20;99.90;;;;;;5151241;27;20430;-69
2022/03/02 05:00:13;;;;;;;40.17;25.20;;;5.20;99.90;;;;;;5149595;27;20034;-69
2022/03/02 05:02:39;;;;;;;40.33;24.17;;;5.20;99.90;;;;;;5151012;27;20046;-69
2022/03/02 05:05:06;;;;;;;42.22;26.75;;;5.20;99.90;;;;;;5151631;27;20042;-69
2022/03/02 05:07:32;;;;;;;44.25;25.92;;;5.10;99.90;;;;;;5148500;27;20070;-69
2022/03/02 05:09:57;;;;;;;40.88;25.60;;;5.10;99.90;;;;;;5151827;27;20134;-69
2022/03/02 05:12:23;;;;;;;43.88;26.90;;;5.10;99.90;;;;;;5149907;27;20046;-69
2022/03/02 05:14:49;;;;;;;45.38;27.13;;;5.10;99.90;;;;;;5149702;27;20027;-69
2022/03/02 05:17:16;;;;;;;41.33;25.75;;;5.10;99.90;;;;;;5150205;27;20167;-69
2022/03/02 05:19:42;;;;;;;41.53;25.95;;;5.10;99.90;;;;;;5150986;27;20125;-69
2022/03/02 05:22:07;;;;;;;41.95;26.08;;;5.00;99.90;;;;;;5149663;27;20179;-69
2022/03/02 05:24:33;;;;;;;42.65;26.60;;;5.00;99.90;;;;;;5148931;27;20039;-68
2022/03/02 05:26:59;;;;;;;44.30;27.85;;;4.90;99.90;;;;;;5149919;27;20042;-68
2022/03/02 05:29:24;;;;;;;42.08;27.08;;;5.80;99.90;;;;;;5152839;27;20070;-68
2022/03/02 05:31:50;;;;;;;43.35;26.73;;;4.90;99.90;;;;;;5150366;27;20406;-68
2022/03/02 05:34:16;;;;;;;46.45;26.10;;;4.90;99.90;;;;;;5149957;27;20042;-68
2022/03/02 05:36:41;;;;;;;45.25;27.73;;;4.90;99.90;;;;;;5167425;27;20045;-68
2022/03/02 05:39:07;;;;;;;44.28;27.60;;;5.00;99.90;;;;;;5150673;27;20026;-68
2022/03/02 05:41:33;;;;;;;42.67;26.08;;;4.80;99.90;;;;;;5147782;27;20034;-68
2022/03/02 05:44:00;;;;;;;42.20;26.42;;;6.00;99.90;;;;;;5149978;27;20084;-68
2022/03/02 05:46:27;;;;;;;42.95;26.10;;;4.80;99.90;;;;;;5151579;27;20058;-69
2022/03/02 05:48:53;;;;;;;45.78;26.38;;;4.70;99.90;;;;;;5149437;27;20043;-68
2022/03/02 05:51:20;;;;;;;45.20;27.10;;;4.70;99.90;;;;;;5131459;27;20075;-68
2022/03/02 05:53:46;;;;;;;47.40;28.50;;;4.70;99.90;;;;;;5146564;27;20031;-68
2022/03/02 05:56:12;;;;;;;43.58;25.83;;;4.60;99.90;;;;;;5148001;27;20042;-68
2022/03/02 05:58:37;;;;;;;46.25;28.02;;;4.60;99.90;;;;;;5151583;27;20035;-68
2022/03/02 06:01:03;;;;;;;47.03;27.65;;;4.50;99.90;;;;;;5149406;27;20754;-68
2022/03/02 06:03:29;;;;;;;44.33;27.25;;;4.50;99.90;;;;;;5148528;27;20051;-68
2022/03/02 06:05:55;;;;;;;44.45;27.23;;;4.40;99.90;;;;;;5149310;27;20066;-68
2022/03/02 06:08:21;;;;;;;41.25;26.30;;;4.40;99.90;;;;;;5150807;27;20042;-68
2022/03/02 06:10:48;;;;;;;46.55;28.70;;;4.40;99.90;;;;;;5149208;27;20031;-68
2022/03/02 06:13:14;;;;;;;45.28;28.02;;;4.30;99.90;;;;;;5129061;27;20124;-69
2022/03/02 06:15:41;;;;;;;47.50;28.90;;;4.30;99.90;;;;;;5148011;27;20078;-69
2022/03/02 06:18:07;;;;;;;46.95;27.45;;;4.20;99.90;;;;;;5149483;27;20031;-69
2022/03/02 06:20:33;;;;;;;46.47;28.25;;;4.20;99.90;;;;;;5148407;27;20099;-69
2022/03/02 06:22:59;;;;;;;48.05;27.95;;;4.20;99.90;;;;;;5148019;27;20038;-68
2022/03/02 06:25:26;;;;;;;50.17;28.67;;;4.10;99.90;;;;;;5132678;27;20428;-68
2022/03/02 06:27:52;;;;;;;43.55;26.77;;;4.10;99.90;;;;;;5145707;27;20041;-68
2022/03/02 06:30:18;;;;;;;51.97;30.00;;;4.00;99.90;;;;;;5150344;27;20125;-68
2022/03/02 06:32:43;;;;;;;43.42;26.17;;;4.00;99.90;;;;;;5149689;27;20062;-68
2022/03/02 06:35:10;;;;;;;46.90;28.92;;;4.00;99.90;;;;;;5148626;27;20034;-68
2022/03/02 06:37:36;;;;;;;46.95;28.00;;;4.30;99.90;;;;;;5147169;27;20035;-68
2022/03/02 06:40:07;;;;;;;46.45;27.88;;;4.00;99.90;;;;;;5148171;27;20484;-68
2022/03/02 06:42:48;;;;;;;45.45;27.20;;;4.00;99.90;;;;;;5147703;27;20042;-68
2022/03/02 06:45:25;;;;;;;46.85;27.95;;;4.00;99.90;;;;;;5150002;27;20126;-69
2022/03/02 06:48:06;;;;;;;48.67;29.13;;;4.10;99.90;;;;;;5149471;27;20096;-68
2022/03/02 06:50:36;;;;;;;45.83;27.55;;;4.10;99.90;;;;;;5148815;27;20077;-68
2022/03/02 06:53:03;;;;;;;43.97;25.83;;;4.10;99.90;;;;;;5148067;27;20089;-68
2022/03/02 06:55:29;;;;;;;44.83;27.98;;;4.10;99.90;;;;;;5148024;27;20083;-69
2022/03/02 06:57:57;;;;;;;47.50;29.20;;;4.10;99.90;;;;;;5130728;27;20050;-68
2022/03/02 07:00:24;;;;;;;46.47;27.92;;;4.10;99.90;;;;;;5145312;27;20035;-68
2022/03/02 07:02:52;;;;;;;48.03;29.17;;;4.20;99.90;;;;;;5149014;27;20046;-68
2022/03/02 07:05:19;;;;;;;44.13;28.33;;;4.20;99.90;;;;;;5148031;27;20422;-68
2022/03/02 07:07:46;;;;;;;50.63;28.33;;;4.20;99.90;;;;;;5148488;27;20035;-68
2022/03/02 07:10:13;;;;;;;50.08;28.63;;;4.20;99.90;;;;;;5146141;27;20077;-68
2022/03/02 07:12:40;;;;;;;46.20;28.83;;;4.30;99.90;;;;;;5148186;27;20046;-69
2022/03/02 07:15:07;;;;;;;52.78;29.33;;;4.30;99.90;;;;;;5146330;27;20042;-68
2022/03/02 07:17:33;;;;;;;44.28;26.77;;;4.30;99.90;;;;;;5146365;27;20031;-68
2022/03/02 07:20:00;;;;;;;47.92;27.50;;;4.60;99.90;;;;;;5149454;27;20110;-69
2022/03/02 07:22:33;;;;;;;45.78;26.88;;;4.50;99.90;;;;;;5148675;27;20050;-68
2022/03/02 07:25:05;;;;;;;48.17;27.90;;;4.50;99.90;;;;;;5146550;27;20070;-68
2022/03/02 07:27:31;;;;;;;47.53;28.55;;;4.60;99.90;;;;;;5148235;27;20079;-69
2022/03/02 07:29:58;;;;;;;45.42;28.10;;;4.60;99.90;;;;;;5146927;27;20042;-68
2022/03/02 07:32:30;;;;;;;49.30;28.52;;;4.70;99.90;;;;;;5150226;27;20035;-68
2022/03/02 07:35:00;;;;;;;47.97;28.98;;;4.80;99.90;;;;;;5147743;27;20035;-69
2022/03/02 07:37:27;;;;;;;44.60;27.05;;;4.70;99.90;;;;;;5147409;27;20490;-68
2022/03/02 07:39:54;;;;;;;46.35;28.13;;;4.70;99.90;;;;;;5150287;27;20079;-68
2022/03/02 07:42:20;;;;;;;44.67;26.80;;;4.70;99.90;;;;;;5146950;27;20505;-69
2022/03/02 07:44:50;;;;;;;40.70;25.58;;;4.70;99.90;;;;;;5150519;27;20148;-68
2022/03/02 07:47:17;;;;;;;44.20;28.55;;;4.70;99.90;;;;;;5146767;27;20385;-68
2022/03/02 07:49:43;;;;;;;45.55;27.95;;;4.70;99.90;;;;;;5148798;27;20031;-69
2022/03/02 07:52:10;;;;;;;47.35;28.02;;;4.70;99.90;;;;;;5148987;27;20557;-69
2022/03/02 07:54:39;;;;;;;46.58;28.52;;;4.70;99.90;;;;;;5129796;27;20038;-69
2022/03/02 07:57:12;;;;;;;50.17;29.67;;;4.80;99.90;;;;;;5150303;27;20114;-69
2022/03/02 07:59:40;;;;;;;46.72;27.90;;;4.80;99.90;;;;;;5144894;27;20046;-69
2022/03/02 08:02:09;;;;;;;46.53;26.48;;;4.80;99.90;;;;;;5128087;27;20489;-69
2022/03/02 08:04:36;;;;;;;43.28;27.05;;;5.00;99.90;;;;;;5135705;27;20121;-69
2022/03/02 08:07:03;;;;;;;47.75;27.58;;;5.00;99.90;;;;;;5150877;27;20043;-70
2022/03/02 08:09:31;;;;;;;44.45;28.45;;;5.00;99.90;;;;;;5168834;27;20038;-70
2022/03/02 08:11:58;;;;;;;42.72;27.00;;;5.10;99.90;;;;;;5153705;27;20511;-69
2022/03/02 08:14:25;;;;;;;44.83;27.38;;;5.10;99.90;;;;;;5150427;27;20091;-69
2022/03/02 08:16:54;;;;;;;48.28;29.00;;;5.10;99.90;;;;;;5152873;27;20112;-70
2022/03/02 08:19:21;;;;;;;43.33;26.60;;;5.20;99.90;;;;;;5153409;27;20035;-69
2022/03/02 08:21:55;;;;;;;42.75;26.33;;;5.50;99.90;;;;;;5152397;27;20109;-69
2022/03/02 08:24:26;;;;;;;42.33;26.13;;;5.20;99.90;;;;;;5153121;27;20074;-69
2022/03/02 08:26:54;;;;;;;39.67;25.13;;;5.20;99.90;;;;;;5133840;27;20079;-69
2022/03/02 08:29:22;;;;;;;41.33;25.50;;;5.40;99.90;;;;;;5152607;27;20066;-69
2022/03/02 08:31:49;;;;;;;38.72;23.45;;;5.30;99.90;;;;;;5151590;27;20115;-69
2022/03/02 08:34:15;;;;;;;42.53;25.15;;;5.50;99.90;;;;;;5152157;27;20047;-69
2022/03/02 08:36:43;;;;;;;41.95;25.65;;;5.40;99.90;;;;;;5151256;27;20053;-69
2022/03/02 08:39:13;;;;;;;43.75;25.10;;;5.50;99.90;;;;;;5151226;27;20099;-69
2022/03/02 08:41:39;;;;;;;39.75;24.73;;;5.50;99.90;;;;;;5153025;27;20065;-69
2022/03/02 08:44:06;;;;;;;36.03;23.17;;;5.50;99.90;;;;;;5153247;27;20121;-69
2022/03/02 08:46:32;;;;;;;37.60;24.40;;;5.60;99.90;;;;;;5150790;27;20095;-69
2022/03/02 08:48:58;;;;;;;39.10;23.17;;;5.60;99.90;;;;;;5149921;27;20031;-69
2022/03/02 08:51:26;;;;;;;34.95;22.60;;;5.70;99.90;;;;;;5151963;27;20053;-70
2022/03/02 08:53:55;;;;;;;36.95;23.40;;;5.70;99.90;;;;;;5151309;27;20038;-69
2022/03/02 08:56:21;;;;;;;37.85;22.30;;;5.70;99.90;;;;;;5150856;27;20043;-69
2022/03/02 08:58:47;;;;;;;42.42;22.75;;;5.70;99.90;;;;;;5149526;27;20038;-69
2022/03/02 09:01:14;;;;;;;35.65;23.17;;;5.80;99.90;;;;;;5153749;27;20387;-69
2022/03/02 09:03:46;;;;;;;38.17;23.50;;;5.80;99.90;;;;;;5151227;27;20392;-69
2022/03/02 09:06:15;;;;;;;38.50;22.98;;;5.80;99.90;;;;;;5150313;27;20034;-70
2022/03/02 09:08:40;;;;;;;38.45;24.15;;;5.80;99.90;;;;;;5146192;27;20054;-69
2022/03/02 09:11:08;;;;;;;35.55;22.92;;;5.80;99.90;;;;;;5146930;27;20059;-69
2022/03/02 09:13:36;;;;;;;36.08;22.48;;;5.80;99.90;;;;;;5150225;27;20039;-69
2022/03/02 09:16:03;;;;;;;34.10;22.08;;;5.80;99.90;;;;;;5150600;27;20066;-69
2022/03/02 09:18:28;;;;;;;36.20;23.30;;;5.80;99.90;;;;;;5149172;27;20126;-69
2022/03/02 09:20:59;;;;;;;39.80;23.33;;;5.80;99.90;;;;;;5150543;27;20141;-69
2022/03/02 09:23:29;;;;;;;41.47;22.40;;;6.00;99.90;;;;;;5150662;27;20092;-69
2022/03/02 09:26:00;;;;;;;36.78;23.55;;;5.70;99.90;;;;;;5151989;27;20046;-69
2022/03/02 09:28:28;;;;;;;36.60;23.10;;;5.70;99.90;;;;;;5149278;27;20554;-69
2022/03/02 09:30:54;;;;;;;37.05;23.25;;;5.80;99.90;;;;;;5133405;27;20676;-69
2022/03/02 09:33:23;;;;;;;37.15;22.33;;;5.70;99.90;;;;;;5149829;27;20446;-69
2022/03/02 09:35:49;;;;;;;37.53;24.27;;;5.80;99.90;;;;;;5150478;27;20538;-69
2022/03/02 09:38:20;;;;;;;35.45;23.05;;;5.60;99.90;;;;;;5151916;27;20054;-69
2022/03/02 09:40:49;;;;;;;35.70;22.10;;;5.60;99.90;;;;;;5131867;27;20043;-69
2022/03/02 09:43:21;;;;;;;36.30;22.98;;;5.60;99.90;;;;;;5151693;27;20045;-69
2022/03/02 09:45:52;;;;;;;33.95;21.83;;;5.60;99.90;;;;;;5143199;27;20103;-69
2022/03/02 09:48:29;;;;;;;38.10;22.55;;;5.60;99.90;;;;;;5141565;27;20486;-69
2022/03/02 09:51:03;;;;;;;36.88;21.75;;;5.50;99.90;;;;;;5149482;27;20035;-69
2022/03/02 09:53:31;;;;;;;36.75;22.05;;;5.60;99.90;;;;;;5147984;27;20090;-69
2022/03/02 09:56:01;;;;;;;38.22;22.80;;;5.60;99.90;;;;;;5147935;27;20096;-69
2022/03/02 09:58:28;;;;;;;36.15;21.95;;;5.60;99.90;;;;;;5145974;27;20030;-69
2022/03/02 10:00:56;;;;;;;34.03;20.55;;;5.60;99.90;;;;;;5150187;27;20414;-69
2022/03/02 10:03:34;;;;;;;35.03;21.73;;;5.70;99.90;;;;;;5148583;27;20047;-69
2022/03/02 10:06:04;;;;;;;33.88;22.08;;;5.70;99.90;;;;;;5150348;27;20051;-69
2022/03/02 10:08:33;;;;;;;37.60;22.30;;;5.90;99.90;;;;;;5147747;27;20099;-69
2022/03/02 10:11:04;;;;;;;37.70;22.60;;;5.90;99.90;;;;;;5149938;27;20042;-69
2022/03/02 10:13:30;;;;;;;35.30;22.10;;;6.00;99.90;;;;;;5149495;27;20045;-69
2022/03/02 10:15:57;;;;;;;37.85;22.42;;;6.10;99.90;;;;;;5147520;27;20046;-69
2022/03/02 10:18:26;;;;;;;35.83;21.27;;;6.30;99.90;;;;;;5150121;27;20493;-69
2022/03/02 10:20:59;;;;;;;32.92;21.08;;;6.30;99.90;;;;;;5149081;27;20159;-69
2022/03/02 10:23:24;;;;;;;30.92;20.27;;;6.50;99.90;;;;;;5151092;27;20031;-69
2022/03/02 10:26:06;;;;;;;35.08;21.52;;;6.60;99.90;;;;;;5148583;27;20745;-69
2022/03/02 10:28:53;;;;;;;31.95;20.30;;;6.70;99.90;;;;;;5148448;27;20047;-69
2022/03/02 10:31:31;;;;;;;32.15;20.30;;;6.90;99.90;;;;;;5146053;27;20038;-69
2022/03/02 10:34:08;;;;;;;31.38;20.23;;;7.00;99.90;;;;;;5148402;27;20136;-69
2022/03/02 10:36:40;;;;;;;36.05;20.70;;;7.10;99.90;;;;;;5149590;27;20078;-69
2022/03/02 10:39:08;;;;;;;30.95;18.77;;;7.20;99.90;;;;;;5147286;27;20081;-69
2022/03/02 10:41:39;;;;;;;28.70;18.42;;;7.40;99.90;;;;;;5147613;27;20050;-69
2022/03/02 10:44:36;;;;;;;31.58;17.63;;;7.70;99.90;;;;;;5147446;27;20035;-69
2022/03/02 10:47:03;;;;;;;26.92;17.90;;;7.70;99.90;;;;;;5145597;27;20050;-70
2022/03/02 10:49:30;;;;;;;29.70;18.75;;;7.80;99.90;;;;;;5127342;27;20042;-70
2022/03/02 10:52:00;;;;;;;27.50;16.95;;;7.90;99.90;;;;;;5148748;27;20046;-70
2022/03/02 10:54:27;;;;;;;23.17;14.43;;;8.00;99.90;;;;;;5146871;27;20043;-70
2022/03/02 10:56:54;;;;;;;23.65;15.27;;;8.10;99.90;;;;;;5128687;27;20042;-70
2022/03/02 10:59:24;;;;;;;26.65;16.20;;;8.20;99.90;;;;;;5148207;27;20065;-71
2022/03/02 11:01:52;;;;;;;26.10;16.67;;;8.30;99.90;;;;;;5147372;27;20490;-70
2022/03/02 11:04:20;;;;;;;25.35;15.70;;;8.50;99.90;;;;;;5146328;27;20354;-70
2022/03/02 11:06:46;;;;;;;26.02;15.60;;;8.50;99.90;;;;;;5147905;27;20106;-70
2022/03/02 11:09:16;;;;;;;26.00;15.98;;;8.60;99.90;;;;;;5148970;27;20114;-69
2022/03/02 11:11:42;;;;;;;23.00;15.60;;;8.60;99.90;;;;;;5148433;27;20129;-69
2022/03/02 11:14:09;;;;;;;24.70;15.02;;;8.70;99.90;;;;;;5145730;27;20043;-69
2022/03/02 11:16:36;;;;;;;23.13;14.77;;;8.80;99.90;;;;;;5146674;27;20123;-69
2022/03/02 11:19:13;;;;;;;21.42;14.00;;;8.80;99.90;;;;;;5149031;27;20498;-69
2022/03/02 11:21:41;;;;;;;21.85;14.13;;;8.90;99.90;;;;;;5130195;27;20070;-69
2022/03/02 11:24:09;;;;;;;23.80;14.88;;;8.90;99.90;;;;;;5147622;27;20656;-69
2022/03/02 11:26:41;;;;;;;24.52;14.25;;;8.90;99.90;;;;;;5145800;27;20043;-69
2022/03/02 11:29:17;;;;;;;23.13;14.90;;;8.90;99.90;;;;;;5150410;27;20042;-69
2022/03/02 11:31:45;;;;;;;22.67;15.30;;;8.90;99.90;;;;;;5148875;27;20137;-69
2022/03/02 11:34:26;;;;;;;24.52;14.55;;;9.00;99.90;;;;;;5143383;27;20038;-69
2022/03/02 11:36:58;;;;;;;24.38;14.85;;;9.10;99.90;;;;;;5147697;27;20031;-69
2022/03/02 11:39:26;;;;;;;23.23;15.30;;;9.10;99.90;;;;;;5145552;27;20030;-69
2022/03/02 11:42:03;;;;;;;24.17;14.82;;;9.10;99.90;;;;;;5146483;27;20042;-69
2022/03/02 11:44:41;;;;;;;21.67;14.95;;;9.10;99.90;;;;;;5146640;27;20030;-69
2022/03/02 11:47:07;;;;;;;23.30;14.80;;;9.20;99.90;;;;;;5147616;27;20121;-70
2022/03/02 11:49:59;;;;;;;23.75;14.70;;;9.20;99.90;;;;;;5147831;27;20153;-69
2022/03/02 11:52:31;;;;;;;23.13;14.50;;;9.20;98.70;;;;;;5143947;27;20058;-67
2022/03/02 11:55:07;;;;;;;24.15;14.60;;;9.30;99.80;;;;;;5147125;27;20122;-67
2022/03/02 11:57:42;;;;;;;23.38;14.18;;;9.30;99.70;;;;;;5145652;27;20039;-67
2022/03/02 12:00:22;;;;;;;23.13;15.10;;;9.40;98.00;;;;;;5147909;27;20041;-67
2022/03/02 12:02:50;;;;;;;24.17;15.02;;;9.40;97.30;;;;;;5147691;27;20038;-67
2022/03/02 12:05:18;;;;;;;24.48;15.18;;;9.40;95.80;;;;;;5147892;27;20146;-67
2022/03/02 12:07:49;;;;;;;23.42;14.57;;;9.40;95.60;;;;;;5148859;27;20031;-67
2022/03/02 12:10:28;;;;;;;24.05;14.43;;;9.40;95.00;;;;;;5147490;27;20041;-67
2022/03/02 12:12:55;;;;;;;24.55;13.80;;;9.50;95.00;;;;;;5147502;27;20058;-67
2022/03/02 12:15:24;;;;;;;20.63;14.07;;;9.40;95.90;;;;;;5149069;27;20054;-67
2022/03/02 12:17:51;;;;;;;23.27;14.43;;;9.50;96.30;;;;;;5147109;27;20378;-67
2022/03/02 12:20:23;;;;;;;24.45;14.35;;;9.50;96.40;;;;;;5149389;27;20034;-67
2022/03/02 12:22:52;;;;;;;21.35;14.15;;;9.60;95.40;;;;;;5146002;27;20463;-70
2022/03/02 12:25:21;;;;;;;22.73;13.43;;;9.70;94.40;;;;;;5146652;27;20035;-69
2022/03/02 12:28:14;;;;;;;25.15;15.70;;;9.70;94.40;;;;;;5129597;27;20043;-70
2022/03/02 12:30:39;;;;;;;23.23;14.93;;;9.70;94.20;;;;;;5123922;27;20057;-69
2022/03/02 12:33:06;;;;;;;25.33;15.30;;;9.70;94.50;;;;;;5148376;27;20019;-70
2022/03/02 12:35:31;;;;;;;23.70;14.82;;;9.70;93.40;;;;;;5150256;27;20026;-70
2022/03/02 12:38:16;;;;;;;23.80;15.63;;;9.70;93.90;;;;;;5146662;27;20087;-70
2022/03/02 12:40:42;;;;;;;21.52;13.93;;;9.70;93.50;;;;;;5149078;27;20046;-70